createdAt,value
2023-04-18T00:01:16.333Z,102449.63
2023-04-18T00:02:48.409Z,102449.63
2023-04-18T00:04:21.005Z,102445.31
2023-04-18T00:05:53.524Z,102457.50
2023-04-18T00:07:25.751Z,102446.97
2023-04-18T00:08:57.672Z,102448.66
2023-04-18T00:10:29.607Z,102453.91
2023-04-18T00:12:02.249Z,102452.16
2023-04-18T00:13:34.226Z,102449.53
2023-04-18T00:15:09.170Z,102449.56
2023-04-18T00:16:41.143Z,102445.16
2023-04-18T00:18:16.399Z,102442.50
2023-04-18T00:19:48.290Z,102445.94
2023-04-18T00:21:20.278Z,102442.31
2023-04-18T00:22:53.441Z,102436.19
2023-04-18T00:24:25.441Z,102437.84
2023-04-18T00:25:57.554Z,102436.97
2023-04-18T00:27:29.527Z,102438.72
2023-04-18T00:29:03.253Z,102436.91
2023-04-18T00:30:35.219Z,102433.38
2023-04-18T00:32:09.690Z,102435.91
2023-04-18T00:33:41.647Z,102434.91
2023-04-18T00:35:13.567Z,102429.56
2023-04-18T00:36:45.509Z,102436.56
2023-04-18T00:38:17.463Z,102438.28
2023-04-18T00:39:49.361Z,102440.78
2023-04-18T00:41:22.426Z,102438.06
2023-04-18T00:42:54.338Z,102430.25
2023-04-18T00:44:26.246Z,102433.63
2023-04-18T00:46:01.675Z,102433.63
2023-04-18T00:47:34.132Z,102437.97
2023-04-18T00:49:06.721Z,102432.75
2023-04-18T00:50:38.900Z,102436.16
2023-04-18T00:52:13.089Z,102442.22
2023-04-18T00:53:46.340Z,102433.47
2023-04-18T00:55:18.752Z,102442.16
2023-04-18T00:56:50.693Z,102438.63
2023-04-18T00:58:23.917Z,102434.31
2023-04-18T00:59:57.024Z,102436.00
2023-04-18T01:01:29.391Z,102441.09
2023-04-18T01:03:01.552Z,102440.13
2023-04-18T01:04:33.779Z,102440.97
2023-04-18T01:06:06.084Z,102441.78
2023-04-18T01:07:41.852Z,102437.38
2023-04-18T01:09:14.182Z,102442.47
2023-04-18T01:10:46.082Z,102439.72
2023-04-18T01:12:20.705Z,102437.16
2023-04-18T01:14:03.152Z,102435.41
2023-04-18T01:15:35.048Z,102434.41
2023-04-18T01:17:08.292Z,102430.06
2023-04-18T01:18:40.494Z,102431.78
2023-04-18T01:20:14.046Z,102432.56
2023-04-18T01:21:46.045Z,102425.50
2023-04-18T01:23:19.549Z,102429.81
2023-04-18T01:24:51.459Z,102433.22
2023-04-18T01:26:23.417Z,102431.41
2023-04-18T01:27:55.332Z,102425.28
2023-04-18T01:29:27.182Z,102416.34
2023-04-18T01:30:59.088Z,102425.06
2023-04-18T01:32:31.192Z,102422.44
2023-04-18T01:34:03.860Z,102422.41
2023-04-18T01:35:36.034Z,102418.97
2023-04-18T01:37:08.100Z,102417.16
2023-04-18T01:38:40.056Z,102417.16
2023-04-18T01:40:12.313Z,102416.28
2023-04-18T01:41:44.393Z,102417.88
2023-04-18T01:43:16.365Z,102415.19
2023-04-18T01:44:48.316Z,102417.81
2023-04-18T01:46:20.203Z,102420.34
2023-04-18T01:47:52.252Z,102407.25
2023-04-18T01:49:24.311Z,102409.75
2023-04-18T01:50:56.276Z,102417.66
2023-04-18T01:52:28.278Z,102415.03
2023-04-18T01:54:00.287Z,102407.06
2023-04-18T01:55:32.181Z,102411.44
2023-04-18T01:57:04.470Z,102398.34
2023-04-18T01:58:37.555Z,102411.28
2023-04-18T02:00:10.044Z,102402.53
2023-04-18T02:01:47.925Z,102401.59
2023-04-18T02:03:20.371Z,102411.13
2023-04-18T02:04:52.487Z,102404.16
2023-04-18T02:06:24.533Z,102396.31
2023-04-18T02:07:56.445Z,102404.97
2023-04-18T02:09:28.464Z,102404.06
2023-04-18T02:11:01.574Z,102395.22
2023-04-18T02:12:34.565Z,102386.28
2023-04-18T02:14:06.953Z,102389.75
2023-04-18T02:15:38.860Z,102399.41
2023-04-18T02:17:10.785Z,102392.47
2023-04-18T02:18:43.710Z,102393.19
2023-04-18T02:20:15.971Z,102394.91
2023-04-18T02:21:47.856Z,102399.16
2023-04-18T02:23:19.833Z,102392.22
2023-04-18T02:24:52.673Z,102399.06
2023-04-18T02:26:24.735Z,102393.81
2023-04-18T02:27:57.688Z,102398.16
2023-04-18T02:29:30.842Z,102391.88
2023-04-18T02:31:02.786Z,102389.97
2023-04-18T02:32:34.864Z,102390.75
2023-04-18T02:34:07.494Z,102389.88
2023-04-18T02:35:39.515Z,102389.81
2023-04-18T02:37:11.649Z,102383.69
2023-04-18T02:38:45.841Z,102393.41
2023-04-18T02:40:18.150Z,102393.31
2023-04-18T02:41:50.135Z,102402.00
2023-04-18T02:43:22.002Z,102395.75
2023-04-18T02:44:54.089Z,102393.03
2023-04-18T02:46:26.336Z,102397.38
2023-04-18T02:47:58.515Z,102400.00
2023-04-18T02:49:30.471Z,102397.31
2023-04-18T02:51:04.434Z,102394.81
2023-04-18T02:52:38.581Z,102394.88
2023-04-18T02:54:11.042Z,102400.88
2023-04-18T02:55:56.857Z,102398.22
2023-04-18T02:57:36.321Z,102398.19
2023-04-18T02:59:26.881Z,102396.25
2023-04-18T03:01:26.345Z,102398.56
2023-04-18T03:03:03.066Z,102391.63
2023-04-18T03:04:45.660Z,102392.50
2023-04-18T03:06:17.628Z,102399.50
2023-04-18T03:07:49.713Z,102396.00
2023-04-18T03:09:22.363Z,102397.63
2023-04-18T03:11:00.116Z,102390.53
2023-04-18T03:12:34.367Z,102401.88
2023-04-18T03:14:07.114Z,102405.34
2023-04-18T03:15:46.860Z,102404.47
2023-04-18T03:17:18.865Z,102400.94
2023-04-18T03:18:53.704Z,102400.84
2023-04-18T03:20:27.244Z,102398.19
2023-04-18T03:21:59.400Z,102390.31
2023-04-18T03:23:32.003Z,102398.03
2023-04-18T03:25:07.264Z,102401.47
2023-04-18T03:26:47.895Z,102402.34
2023-04-18T03:28:21.429Z,102399.75
2023-04-18T03:29:53.341Z,102396.22
2023-04-18T03:31:25.450Z,102398.03
2023-04-18T03:32:57.407Z,102404.13
2023-04-18T03:34:29.642Z,102402.34
2023-04-18T03:36:01.785Z,102403.03
2023-04-18T03:37:33.949Z,102409.94
2023-04-18T03:39:06.873Z,102403.84
2023-04-18T03:40:39.723Z,102405.66
2023-04-18T03:42:19.044Z,102398.53
2023-04-18T03:43:51.004Z,102408.84
2023-04-18T03:45:22.921Z,102408.03
2023-04-18T03:46:56.228Z,102403.59
2023-04-18T03:48:29.963Z,102402.78
2023-04-18T03:50:06.193Z,102402.69
2023-04-18T03:51:48.090Z,102404.44
2023-04-18T03:53:20.267Z,102412.25
2023-04-18T03:54:52.264Z,102412.25
2023-04-18T03:56:29.060Z,102402.44
2023-04-18T03:58:01.312Z,102405.22
2023-04-18T03:59:34.568Z,102412.91
2023-04-18T04:01:07.985Z,102403.22
2023-04-18T04:02:40.071Z,102409.41
2023-04-18T04:04:14.297Z,102403.09
2023-04-18T04:05:46.911Z,102407.47
2023-04-18T04:07:20.624Z,102397.94
2023-04-18T04:08:52.540Z,102409.25
2023-04-18T04:10:28.676Z,102399.63
2023-04-18T04:12:00.659Z,102405.84
2023-04-18T04:13:32.848Z,102406.50
2023-04-18T04:15:05.254Z,102409.97
2023-04-18T04:16:38.326Z,102414.34
2023-04-18T04:18:11.097Z,102405.66
2023-04-18T04:19:46.829Z,102409.03
2023-04-18T04:21:22.634Z,102406.28
2023-04-18T04:22:59.124Z,102400.25
2023-04-18T04:24:33.543Z,102409.84
2023-04-18T04:26:05.992Z,102407.28
2023-04-18T04:27:49.868Z,102408.75
2023-04-18T04:29:21.921Z,102418.28
2023-04-18T04:30:55.741Z,102416.50
2023-04-18T04:32:28.661Z,102420.94
2023-04-18T04:34:00.805Z,102423.63
2023-04-18T04:35:35.057Z,102413.06
2023-04-18T04:37:08.336Z,102424.41
2023-04-18T04:38:47.549Z,102415.72
2023-04-18T04:40:20.162Z,102415.59
2023-04-18T04:41:55.755Z,102419.91
2023-04-18T04:43:29.442Z,102422.59
2023-04-18T04:45:03.206Z,102430.31
2023-04-18T04:46:39.624Z,102425.94
2023-04-18T04:48:19.081Z,102431.16
2023-04-18T04:49:51.065Z,102437.22
2023-04-18T04:51:23.337Z,102434.56
2023-04-18T04:52:55.998Z,102433.50
2023-04-18T04:54:28.109Z,102444.78
2023-04-18T04:56:00.348Z,102436.16
2023-04-18T04:57:32.576Z,102430.91
2023-04-18T04:59:05.383Z,102437.91
2023-04-18T05:00:41.559Z,102441.34
2023-04-18T05:02:13.587Z,102441.34
2023-04-18T05:03:46.466Z,102443.13
2023-04-18T05:05:20.113Z,102441.31
2023-04-18T05:06:52.130Z,102449.16
2023-04-18T05:08:24.278Z,102443.94
2023-04-18T05:09:56.364Z,102440.38
2023-04-18T05:11:28.370Z,102441.19
2023-04-18T05:13:00.386Z,102443.84
2023-04-18T05:14:32.488Z,102445.63
2023-04-18T05:16:04.777Z,102444.78
2023-04-18T05:17:36.941Z,102450.88
2023-04-18T05:19:09.074Z,102451.75
2023-04-18T05:20:41.281Z,102456.22
2023-04-18T05:22:13.251Z,102451.75
2023-04-18T05:23:45.289Z,102461.31
2023-04-18T05:25:17.348Z,102461.47
2023-04-18T05:26:49.364Z,102463.25
2023-04-18T05:28:24.080Z,102461.56
2023-04-18T05:29:56.141Z,102466.78
2023-04-18T05:31:29.447Z,102466.00
2023-04-18T05:33:01.605Z,102455.50
2023-04-18T05:34:38.595Z,102472.03
2023-04-18T05:36:11.101Z,102461.56
2023-04-18T05:37:43.187Z,102465.16
2023-04-18T05:39:15.153Z,102466.09
2023-04-18T05:40:47.192Z,102460.78
2023-04-18T05:42:19.152Z,102464.34
2023-04-18T05:44:04.265Z,102476.50
2023-04-18T05:45:37.259Z,102480.88
2023-04-18T05:47:09.310Z,102471.31
2023-04-18T05:48:41.602Z,102482.66
2023-04-18T05:50:13.582Z,102480.03
2023-04-18T05:51:46.404Z,102489.81
2023-04-18T05:53:18.415Z,102489.81
2023-04-18T05:54:51.219Z,102489.81
2023-04-18T05:56:23.247Z,102481.91
2023-04-18T05:57:55.201Z,102485.41
2023-04-18T05:59:27.265Z,102488.97
2023-04-18T06:00:59.316Z,102485.53
2023-04-18T06:02:31.395Z,102494.31
2023-04-18T06:04:03.729Z,102496.03
2023-04-18T06:05:36.032Z,102496.84
2023-04-18T06:07:08.624Z,102496.19
2023-04-18T06:08:40.783Z,102501.50
2023-04-18T06:10:13.842Z,102497.28
2023-04-18T06:11:45.959Z,102500.81
2023-04-18T06:13:17.909Z,102500.81
2023-04-18T06:14:50.294Z,102499.03
2023-04-18T06:16:22.732Z,102507.78
2023-04-18T06:17:54.889Z,102503.59
2023-04-18T06:19:26.917Z,102501.78
2023-04-18T06:20:58.965Z,102499.28
2023-04-18T06:22:31.190Z,102512.50
2023-04-18T06:24:03.203Z,102507.38
2023-04-18T06:25:35.306Z,102510.22
2023-04-18T06:27:10.833Z,102506.00
2023-04-18T06:28:49.722Z,102505.22
2023-04-18T06:30:22.393Z,102495.78
2023-04-18T06:31:54.468Z,102508.84
2023-04-18T06:33:26.599Z,102499.22
2023-04-18T06:34:58.623Z,102501.91
2023-04-18T06:36:30.675Z,102503.72
2023-04-18T06:38:02.740Z,102506.41
2023-04-18T06:39:34.776Z,102504.75
2023-04-18T06:41:06.977Z,102506.59
2023-04-18T06:42:39.319Z,102508.44
2023-04-18T06:44:11.311Z,102502.34
2023-04-18T06:45:43.376Z,102514.63
2023-04-18T06:47:15.450Z,102518.31
2023-04-18T06:48:48.567Z,102516.66
2023-04-18T06:50:21.497Z,102517.56
2023-04-18T06:51:53.566Z,102511.59
2023-04-18T06:53:25.615Z,102512.63
2023-04-18T06:54:57.626Z,102505.69
2023-04-18T06:56:30.043Z,102502.16
2023-04-18T06:58:02.055Z,102509.22
2023-04-18T06:59:35.870Z,102509.25
2023-04-18T07:01:07.857Z,102507.50
2023-04-18T07:02:40.675Z,102519.81
2023-04-18T07:04:12.874Z,102517.22
2023-04-18T07:05:45.415Z,102512.13
2023-04-18T07:07:17.420Z,102517.59
2023-04-18T07:08:49.494Z,102516.84
2023-04-18T07:10:21.702Z,102528.28
2023-04-18T07:11:53.794Z,102521.34
2023-04-18T07:13:25.797Z,102522.31
2023-04-18T07:14:57.882Z,102523.41
2023-04-18T07:16:29.924Z,102520.81
2023-04-18T07:18:02.246Z,102520.88
2023-04-18T07:19:34.211Z,102521.78
2023-04-18T07:21:09.578Z,102515.63
2023-04-18T07:22:41.770Z,102518.31
2023-04-18T07:24:13.980Z,102523.78
2023-04-18T07:25:46.303Z,102520.38
2023-04-18T07:27:18.359Z,102513.53
2023-04-18T07:28:50.574Z,102519.81
2023-04-18T07:30:22.529Z,102516.44
2023-04-18T07:31:54.848Z,102524.44
2023-04-18T07:33:27.018Z,102525.44
2023-04-18T07:34:59.487Z,102521.19
2023-04-18T07:36:31.832Z,102523.81
2023-04-18T07:38:04.048Z,102527.50
2023-04-18T07:39:36.608Z,102530.25
2023-04-18T07:41:08.683Z,102523.34
2023-04-18T07:42:40.825Z,102525.47
2023-04-18T07:44:13.168Z,102533.63
2023-04-18T07:45:46.025Z,102530.31
2023-04-18T07:47:22.335Z,102526.16
2023-04-18T07:48:54.611Z,102522.13
2023-04-18T07:50:27.206Z,102520.88
2023-04-18T07:51:59.275Z,102515.22
2023-04-18T07:53:31.341Z,102517.47
2023-04-18T07:55:03.294Z,102510.72
2023-04-18T07:56:35.317Z,102516.13
2023-04-18T07:58:07.407Z,102507.50
2023-04-18T07:59:39.532Z,102512.78
2023-04-18T08:01:14.394Z,102519.03
2023-04-18T08:02:46.807Z,102516.50
2023-04-18T08:04:19.164Z,102511.41
2023-04-18T08:05:52.208Z,102510.78
2023-04-18T08:07:24.148Z,102513.44
2023-04-18T08:08:56.212Z,102511.13
2023-04-18T08:10:28.472Z,102505.16
2023-04-18T08:12:00.536Z,102503.75
2023-04-18T08:13:32.803Z,102509.16
2023-04-18T08:15:05.321Z,102511.06
2023-04-18T08:16:37.968Z,102519.06
2023-04-18T08:18:10.317Z,102509.44
2023-04-18T08:19:42.551Z,102498.19
2023-04-18T08:21:14.924Z,102513.94
2023-04-18T08:23:04.700Z,102515.50
2023-04-18T08:24:39.226Z,102515.50
2023-04-18T08:26:11.207Z,102512.03
2023-04-18T08:27:43.796Z,102519.88
2023-04-18T08:29:16.178Z,102512.88
2023-04-18T08:30:49.499Z,102522.63
2023-04-18T08:32:21.593Z,102516.59
2023-04-18T08:33:53.654Z,102511.31
2023-04-18T08:35:25.678Z,102512.25
2023-04-18T08:36:57.735Z,102516.84
2023-04-18T08:38:29.894Z,102503.88
2023-04-18T08:40:04.053Z,102508.28
2023-04-18T08:41:38.101Z,102517.59
2023-04-18T08:43:14.349Z,102514.03
2023-04-18T08:44:47.550Z,102513.94
2023-04-18T08:46:19.857Z,102522.59
2023-04-18T08:47:52.459Z,102520.47
2023-04-18T08:49:25.201Z,102529.75
2023-04-18T08:50:58.949Z,102533.34
2023-04-18T08:52:32.841Z,102530.94
2023-04-18T08:54:06.551Z,102524.22
2023-04-18T08:55:38.707Z,102518.22
2023-04-18T08:57:12.851Z,102524.56
2023-04-18T08:58:45.426Z,102527.16
2023-04-18T09:00:18.342Z,102528.25
2023-04-18T09:01:51.036Z,102527.44
2023-04-18T09:03:40.808Z,102517.78
2023-04-18T09:05:15.221Z,102526.34
2023-04-18T09:06:53.424Z,102522.53
2023-04-18T09:08:25.560Z,102527.84
2023-04-18T09:09:58.167Z,102525.03
2023-04-18T09:11:32.105Z,102525.81
2023-04-18T09:13:04.663Z,102538.09
2023-04-18T09:14:37.085Z,102533.56
2023-04-18T09:16:09.172Z,102533.50
2023-04-18T09:17:49.630Z,102531.59
2023-04-18T09:19:22.058Z,102529.78
2023-04-18T09:20:55.355Z,102527.09
2023-04-18T09:22:28.106Z,102532.50
2023-04-18T09:24:29.684Z,102529.00
2023-04-18T09:26:01.700Z,102531.75
2023-04-18T09:27:35.179Z,102530.25
2023-04-18T09:29:07.301Z,102528.66
2023-04-18T09:30:41.164Z,102532.22
2023-04-18T09:32:27.390Z,102520.00
2023-04-18T09:34:00.961Z,102526.03
2023-04-18T09:35:32.985Z,102522.59
2023-04-18T09:37:08.886Z,102533.22
2023-04-18T09:38:41.651Z,102519.31
2023-04-18T09:40:20.620Z,102536.81
2023-04-18T09:41:59.468Z,102524.56
2023-04-18T09:43:31.599Z,102520.13
2023-04-18T09:45:08.615Z,102528.06
2023-04-18T09:46:40.783Z,102525.41
2023-04-18T09:48:12.940Z,102521.94
2023-04-18T09:49:44.949Z,102518.50
2023-04-18T09:51:16.968Z,102526.34
2023-04-18T09:52:49.071Z,102527.16
2023-04-18T09:54:24.332Z,102525.75
2023-04-18T09:55:57.801Z,102529.91
2023-04-18T09:57:31.303Z,102521.94
2023-04-18T09:59:09.915Z,102523.66
2023-04-18T10:00:42.243Z,102534.25
2023-04-18T10:02:23.642Z,102522.97
2023-04-18T10:03:56.621Z,102530.00
2023-04-18T10:05:29.592Z,102522.16
2023-04-18T10:07:02.292Z,102525.75
2023-04-18T10:08:34.956Z,102527.66
2023-04-18T10:10:07.717Z,102537.28
2023-04-18T10:11:39.619Z,102524.13
2023-04-18T10:13:12.232Z,102522.47
2023-04-18T10:14:44.664Z,102524.31
2023-04-18T10:16:17.329Z,102517.31
2023-04-18T10:18:05.030Z,102522.75
2023-04-18T10:19:38.954Z,102521.84
2023-04-18T10:21:11.037Z,102518.34
2023-04-18T10:22:43.643Z,102511.63
2023-04-18T10:24:53.639Z,102515.31
2023-04-18T10:26:47.263Z,102512.78
2023-04-18T10:28:21.284Z,102521.59
2023-04-18T10:29:54.082Z,102518.09
2023-04-18T10:31:26.607Z,102512.91
2023-04-18T10:32:58.799Z,102510.41
2023-04-18T10:34:30.958Z,102515.78
2023-04-18T10:36:09.299Z,102510.78
2023-04-18T10:37:51.362Z,102515.28
2023-04-18T10:39:25.479Z,102510.91
2023-04-18T10:41:25.527Z,102517.72
2023-04-18T10:42:57.512Z,102516.84
2023-04-18T10:44:29.532Z,102520.19
2023-04-18T10:46:20.476Z,102513.13
2023-04-18T10:48:26.194Z,102510.69
2023-04-18T10:49:59.232Z,102510.66
2023-04-18T10:51:31.333Z,102508.91
2023-04-18T10:53:03.342Z,102511.47
2023-04-18T10:54:47.296Z,102522.88
2023-04-18T10:56:19.342Z,102515.22
2023-04-18T10:57:51.813Z,102515.44
2023-04-18T10:59:25.384Z,102518.13
2023-04-18T11:00:57.601Z,102506.13
2023-04-18T11:02:32.601Z,102503.50
2023-04-18T11:04:13.197Z,102500.84
2023-04-18T11:05:45.765Z,102508.78
2023-04-18T11:07:18.336Z,102498.41
2023-04-18T11:08:50.529Z,102496.78
2023-04-18T11:10:24.729Z,102498.56
2023-04-18T11:12:07.950Z,102494.22
2023-04-18T11:13:58.561Z,102495.31
2023-04-18T11:15:31.253Z,102490.06
2023-04-18T11:17:19.438Z,102484.84
2023-04-18T11:18:51.609Z,102487.47
2023-04-18T11:20:23.742Z,102491.03
2023-04-18T11:22:00.830Z,102493.63
2023-04-18T11:23:32.971Z,102492.63
2023-04-18T11:25:08.774Z,102488.16
2023-04-18T11:26:40.985Z,102487.25
2023-04-18T11:28:17.090Z,102498.59
2023-04-18T11:29:53.437Z,102485.41
2023-04-18T11:31:25.731Z,102497.69
2023-04-18T11:32:58.010Z,102495.91
2023-04-18T11:34:31.259Z,102497.66
2023-04-18T11:36:03.373Z,102493.25
2023-04-18T11:37:37.050Z,102486.13
2023-04-18T11:39:10.789Z,102491.34
2023-04-18T11:40:49.624Z,102496.56
2023-04-18T11:42:26.694Z,102500.94
2023-04-18T11:43:58.884Z,102496.50
2023-04-18T11:45:30.967Z,102503.50
2023-04-18T11:47:02.998Z,102506.97
2023-04-18T11:48:39.202Z,102503.38
2023-04-18T11:50:13.466Z,102506.88
2023-04-18T11:51:46.629Z,102506.72
2023-04-18T11:53:35.269Z,102498.81
2023-04-18T11:55:17.818Z,102505.69
2023-04-18T11:56:49.943Z,102506.53
2023-04-18T11:58:30.712Z,102500.38
2023-04-18T12:00:03.163Z,102501.31
2023-04-18T12:01:41.052Z,102499.41
2023-04-18T12:03:17.270Z,102495.91
2023-04-18T12:04:54.405Z,102501.25
2023-04-18T12:06:28.557Z,102501.25
2023-04-18T12:08:06.333Z,102495.97
2023-04-18T12:09:39.277Z,102484.66
2023-04-18T12:11:20.742Z,102491.75
2023-04-18T12:12:59.084Z,102483.78
2023-04-18T12:14:36.940Z,102490.78
2023-04-18T12:16:09.026Z,102480.28
2023-04-18T12:17:44.564Z,102487.34
2023-04-18T12:19:17.326Z,102489.94
2023-04-18T12:20:50.837Z,102484.75
2023-04-18T12:22:40.326Z,102481.97
2023-04-18T12:24:18.576Z,102482.00
2023-04-18T12:25:59.500Z,102478.50
2023-04-18T12:28:00.630Z,102490.75
2023-04-18T12:29:32.840Z,102476.75
2023-04-18T12:31:08.294Z,102480.31
2023-04-18T12:32:40.504Z,102475.09
2023-04-18T12:34:12.868Z,102477.72
2023-04-18T12:35:46.898Z,102483.84
2023-04-18T12:37:25.737Z,102479.47
2023-04-18T12:38:57.712Z,102477.72
2023-04-18T12:40:30.543Z,102478.63
2023-04-18T12:42:02.811Z,102490.06
2023-04-18T12:43:35.084Z,102483.09
2023-04-18T12:45:09.851Z,102480.41
2023-04-18T12:46:42.023Z,102486.56
2023-04-18T12:48:14.340Z,102479.50
2023-04-18T12:49:46.220Z,102474.16
2023-04-18T12:51:18.281Z,102480.38
2023-04-18T12:52:54.816Z,102479.66
2023-04-18T12:54:26.859Z,102472.88
2023-04-18T12:55:58.912Z,102454.69
2023-04-18T12:57:31.864Z,102464.44
2023-04-18T12:59:03.900Z,102452.31
2023-04-18T13:00:36.147Z,102453.25
2023-04-18T13:02:08.366Z,102456.81
2023-04-18T13:03:40.713Z,102453.38
2023-04-18T13:05:16.074Z,102459.50
2023-04-18T13:06:48.180Z,102456.94
2023-04-18T13:08:20.144Z,102456.09
2023-04-18T13:09:52.306Z,102457.84
2023-04-18T13:11:28.786Z,102455.22
2023-04-18T13:13:01.081Z,102452.59
2023-04-18T13:14:33.278Z,102446.44
2023-04-18T13:16:06.029Z,102445.63
2023-04-18T13:17:38.985Z,102448.22
2023-04-18T13:19:11.051Z,102445.59
2023-04-18T13:20:44.288Z,102456.16
2023-04-18T13:22:17.360Z,102455.22
2023-04-18T13:23:49.481Z,102454.31
2023-04-18T13:25:22.057Z,102456.97
2023-04-18T13:26:54.355Z,102460.41
2023-04-18T13:28:26.471Z,102457.75
2023-04-18T13:29:58.643Z,102459.50
2023-04-18T13:31:31.713Z,102462.13
2023-04-18T13:33:03.910Z,102462.09
2023-04-18T13:34:39.638Z,102455.03
2023-04-18T13:36:11.718Z,102455.84
2023-04-18T13:37:44.243Z,102454.94
2023-04-18T13:39:16.933Z,102460.09
2023-04-18T13:40:52.031Z,102459.22
2023-04-18T13:42:43.564Z,102455.72
2023-04-18T13:44:15.805Z,102454.94
2023-04-18T13:45:48.014Z,102448.06
2023-04-18T13:47:20.437Z,102456.03
2023-04-18T13:48:52.668Z,102446.41
2023-04-18T13:50:24.755Z,102449.94
2023-04-18T13:51:59.622Z,102442.91
2023-04-18T13:53:31.534Z,102450.75
2023-04-18T13:55:04.199Z,102459.53
2023-04-18T13:56:36.159Z,102448.97
2023-04-18T13:58:09.808Z,102453.31
2023-04-18T13:59:42.021Z,102455.06
2023-04-18T14:01:14.423Z,102445.38
2023-04-18T14:02:46.473Z,102455.03
2023-04-18T14:04:20.620Z,102462.84
2023-04-18T14:05:52.716Z,102453.19
2023-04-18T14:07:24.733Z,102448.72
2023-04-18T14:08:59.658Z,102446.94
2023-04-18T14:10:31.921Z,102447.81
2023-04-18T14:12:04.124Z,102440.78
2023-04-18T14:13:36.390Z,102440.78
2023-04-18T14:15:09.231Z,102443.41
2023-04-18T14:16:41.361Z,102444.31
2023-04-18T14:18:13.423Z,102435.56
2023-04-18T14:19:45.544Z,102438.25
2023-04-18T14:21:17.641Z,102430.47
2023-04-18T14:22:52.923Z,102430.53
2023-04-18T14:24:25.360Z,102429.69
2023-04-18T14:25:57.363Z,102433.25
2023-04-18T14:27:29.330Z,102430.63
2023-04-18T14:29:01.373Z,102427.13
2023-04-18T14:30:33.466Z,102427.19
2023-04-18T14:32:06.703Z,102417.44
2023-04-18T14:33:38.821Z,102423.66
2023-04-18T14:35:11.096Z,102424.47
2023-04-18T14:36:43.093Z,102410.44
2023-04-18T14:38:15.773Z,102419.25
2023-04-18T14:39:48.735Z,102411.34
2023-04-18T14:41:20.821Z,102428.91
2023-04-18T14:42:52.805Z,102423.66
2023-04-18T14:44:24.874Z,102413.09
2023-04-18T14:45:59.026Z,102421.00
2023-04-18T14:47:34.936Z,102425.41
2023-04-18T14:49:07.040Z,102422.75
2023-04-18T14:50:39.416Z,102417.50
2023-04-18T14:52:11.461Z,102413.97
2023-04-18T14:53:44.082Z,102413.97
2023-04-18T14:55:16.082Z,102421.00
2023-04-18T14:56:48.031Z,102419.25
2023-04-18T14:58:20.124Z,102413.13
2023-04-18T14:59:53.159Z,102412.19
2023-04-18T15:01:25.162Z,102420.09
2023-04-18T15:02:57.312Z,102417.47
2023-04-18T15:04:29.455Z,102424.47
2023-04-18T15:06:01.850Z,102416.56
2023-04-18T15:07:34.623Z,102423.59
2023-04-18T15:09:07.372Z,102424.47
2023-04-18T15:10:40.599Z,102415.69
2023-04-18T15:12:12.669Z,102431.50
2023-04-18T15:13:45.003Z,102423.53
2023-04-18T15:15:17.410Z,102420.03
2023-04-18T15:16:50.053Z,102416.50
2023-04-18T15:18:22.494Z,102418.25
2023-04-18T15:19:54.592Z,102425.25
2023-04-18T15:21:27.591Z,102425.25
2023-04-18T15:22:59.586Z,102419.97
2023-04-18T15:24:31.679Z,102420.88
2023-04-18T15:26:03.904Z,102427.91
2023-04-18T15:27:36.063Z,102419.16
2023-04-18T15:29:11.095Z,102415.69
2023-04-18T15:30:43.273Z,102413.94
2023-04-18T15:32:15.501Z,102414.81
2023-04-18T15:33:47.576Z,102412.19
2023-04-18T15:35:19.677Z,102404.28
2023-04-18T15:36:51.849Z,102407.81
2023-04-18T15:38:24.062Z,102406.91
2023-04-18T15:39:57.404Z,102402.53
2023-04-18T15:41:29.554Z,102411.31
2023-04-18T15:43:01.720Z,102406.91
2023-04-18T15:44:33.685Z,102405.16
2023-04-18T15:46:05.851Z,102406.91
2023-04-18T15:47:42.071Z,102413.06
2023-04-18T15:49:14.196Z,102410.44
2023-04-18T15:50:51.072Z,102411.31
2023-04-18T15:52:23.052Z,102414.81
2023-04-18T15:53:55.281Z,102410.44
2023-04-18T15:55:27.492Z,102406.03
2023-04-18T15:56:59.759Z,102405.16
2023-04-18T15:58:32.018Z,102398.13
2023-04-18T16:00:07.254Z,102404.28
2023-04-18T16:01:39.395Z,102399.94
2023-04-18T16:03:11.525Z,102398.13
2023-04-18T16:04:43.735Z,102400.75
2023-04-18T16:06:16.043Z,102396.38
2023-04-18T16:07:48.151Z,102397.25
2023-04-18T16:09:20.354Z,102400.78
2023-04-18T16:10:52.927Z,102399.03
2023-04-18T16:12:24.967Z,102396.44
2023-04-18T16:13:56.990Z,102392.91
2023-04-18T16:15:31.393Z,102385.00
2023-04-18T16:17:03.973Z,102389.38
2023-04-18T16:18:36.040Z,102395.50
2023-04-18T16:20:09.376Z,102391.13
2023-04-18T16:21:41.480Z,102396.41
2023-04-18T16:23:13.515Z,102390.28
2023-04-18T16:24:45.563Z,102391.16
2023-04-18T16:26:17.795Z,102391.13
2023-04-18T16:27:49.828Z,102394.63
2023-04-18T16:29:21.876Z,102386.72
2023-04-18T16:30:55.592Z,102384.09
2023-04-18T16:32:28.010Z,102377.94
2023-04-18T16:34:00.273Z,102386.72
2023-04-18T16:35:32.518Z,102381.44
2023-04-18T16:37:04.468Z,102385.84
2023-04-18T16:38:36.481Z,102380.56
2023-04-18T16:40:13.085Z,102390.22
2023-04-18T16:41:45.260Z,102371.78
2023-04-18T16:43:17.364Z,102382.31
2023-04-18T16:44:49.525Z,102384.94
2023-04-18T16:46:21.533Z,102379.69
2023-04-18T16:47:53.568Z,102381.44
2023-04-18T16:49:26.373Z,102381.44
2023-04-18T16:50:58.745Z,102380.56
2023-04-18T16:52:31.658Z,102376.19
2023-04-18T16:54:03.826Z,102379.69
2023-04-18T16:55:36.444Z,102386.72
2023-04-18T16:57:08.510Z,102381.47
2023-04-18T16:58:40.932Z,102389.38
2023-04-18T17:00:13.950Z,102384.97
2023-04-18T17:01:46.082Z,102377.06
2023-04-18T17:03:18.200Z,102384.97
2023-04-18T17:04:50.525Z,102377.94
2023-04-18T17:06:25.013Z,102377.03
2023-04-18T17:07:57.050Z,102383.16
2023-04-18T17:09:29.029Z,102385.78
2023-04-18T17:11:02.476Z,102385.78
2023-04-18T17:12:34.450Z,102389.28
2023-04-18T17:14:06.589Z,102394.56
2023-04-18T17:15:38.730Z,102391.91
2023-04-18T17:17:10.806Z,102388.41
2023-04-18T17:18:42.780Z,102391.91
2023-04-18T17:20:16.277Z,102393.66
2023-04-18T17:21:49.345Z,102395.41
2023-04-18T17:23:22.074Z,102385.75
2023-04-18T17:24:54.082Z,102384.78
2023-04-18T17:26:26.902Z,102393.56
2023-04-18T17:28:00.970Z,102390.06
2023-04-18T17:29:33.048Z,102383.91
2023-04-18T17:31:05.295Z,102386.50
2023-04-18T17:32:42.185Z,102391.78
2023-04-18T17:34:14.181Z,102392.59
2023-04-18T17:35:46.227Z,102381.19
2023-04-18T17:37:19.872Z,102386.44
2023-04-18T17:38:51.942Z,102384.69
2023-04-18T17:40:24.175Z,102391.69
2023-04-18T17:41:56.247Z,102385.53
2023-04-18T17:43:28.363Z,102396.06
2023-04-18T17:45:02.546Z,102393.44
2023-04-18T17:46:34.737Z,102386.38
2023-04-18T17:48:06.921Z,102399.50
2023-04-18T17:49:39.050Z,102389.84